Time;durP1;ratioP1;P1;durP2;ratioP2;P2;SDS_P1;SDS_P2;PMS_P1;PMS_P2;Temp;Humidity;BMP_temperature;BMP_pressure;BME280_temperature;BME280_humidity;BME280_pressure;Samples;Min_cycle;Max_cycle;Signal;HPM_P1;HPM_P2
2023/04/02 00:01:00;;;;;;;0.40;0.10;;;16.80;68.70;;;;;;5006386;28;20050;-77
2023/04/02 00:03:44;;;;;;;0.40;0.20;;;16.80;68.70;;;;;;5007048;28;20030;-78
2023/04/02 00:06:29;;;;;;;0.20;0.20;;;16.80;68.80;;;;;;5005156;28;20404;-77
2023/04/02 00:08:57;;;;;;;0.38;0.28;;;16.70;68.70;;;;;;5008006;28;20042;-78
2023/04/02 00:11:30;;;;;;;0.20;0.20;;;16.80;68.60;;;;;;4987958;28;20052;-78
2023/04/02 00:13:57;;;;;;;0.20;0.20;;;16.70;68.70;;;;;;4990041;28;20076;-77
2023/04/02 00:16:23;;;;;;;0.73;0.28;;;16.70;68.60;;;;;;5004861;28;20573;-77
2023/04/02 00:18:54;;;;;;;0.17;0.13;;;16.70;68.60;;;;;;4988733;28;20030;-78
2023/04/02 00:21:27;;;;;;;0.30;0.30;;;16.80;68.70;;;;;;4990743;28;20044;-77
2023/04/02 00:23:53;;;;;;;0.40;0.20;;;16.70;68.60;;;;;;5004385;28;20042;-77
2023/04/02 00:26:42;;;;;;;0.30;0.25;;;16.70;68.70;;;;;;5004936;28;20034;-78
2023/04/02 00:29:10;;;;;;;0.30;0.20;;;16.70;68.70;;;;;;5005482;28;20033;-77
2023/04/02 00:31:40;;;;;;;0.28;0.28;;;16.70;68.80;;;;;;4991705;28;20529;-78
2023/04/02 00:34:07;;;;;;;0.13;0.13;;;16.70;68.80;;;;;;5021589;28;20092;-77
2023/04/02 00:36:33;;;;;;;0.30;0.20;;;16.70;68.80;;;;;;5005364;28;20080;-78
2023/04/02 00:38:59;;;;;;;0.43;0.20;;;16.70;68.80;;;;;;5005562;28;20061;-77
2023/04/02 00:41:29;;;;;;;0.40;0.32;;;16.70;68.80;;;;;;5004357;28;20038;-77
2023/04/02 00:43:56;;;;;;;0.20;0.17;;;16.70;68.80;;;;;;5005353;28;21532;-77
2023/04/02 00:46:25;;;;;;;0.40;0.20;;;16.70;68.90;;;;;;5003448;28;20502;-77
2023/04/02 00:48:58;;;;;;;0.13;0.13;;;16.70;68.90;;;;;;5004207;28;20038;-78
2023/04/02 00:51:30;;;;;;;0.25;0.20;;;16.70;68.90;;;;;;5005877;28;20035;-77
2023/04/02 00:53:56;;;;;;;0.25;0.25;;;16.70;68.90;;;;;;5006969;28;20036;-77
2023/04/02 00:56:25;;;;;;;0.47;0.30;;;16.70;69.70;;;;;;5005200;28;20417;-78
2023/04/02 00:58:55;;;;;;;0.13;0.13;;;16.70;69.00;;;;;;4988949;28;20454;-77
2023/04/02 01:01:23;;;;;;;0.60;0.40;;;16.70;68.80;;;;;;5021104;28;20084;-78
2023/04/02 01:03:56;;;;;;;0.32;0.30;;;16.70;68.90;;;;;;5006101;28;20049;-78
2023/04/02 01:06:23;;;;;;;0.30;0.20;;;16.70;68.90;;;;;;5004754;28;20084;-77
2023/04/02 01:08:55;;;;;;;0.32;0.30;;;16.70;68.90;;;;;;5005769;28;20080;-77
2023/04/02 01:12:01;;;;;;;0.43;0.30;;;16.70;69.00;;;;;;5005262;28;20115;-77
2023/04/02 01:14:38;;;;;;;0.50;0.30;;;16.70;68.90;;;;;;5006800;28;20046;-78
2023/04/02 01:17:25;;;;;;;0.30;0.30;;;16.70;68.90;;;;;;5005457;28;20038;-77
2023/04/02 01:19:53;;;;;;;0.52;0.50;;;16.70;69.00;;;;;;5003943;28;20439;-78
2023/04/02 01:22:34;;;;;;;0.40;0.40;;;16.70;69.00;;;;;;5004481;28;20053;-78
2023/04/02 01:25:03;;;;;;;0.25;0.22;;;16.70;68.90;;;;;;5002644;28;20666;-77
2023/04/02 01:27:50;;;;;;;0.40;0.30;;;16.60;68.80;;;;;;5005382;28;20420;-77
2023/04/02 01:30:17;;;;;;;0.32;0.30;;;16.70;68.90;;;;;;5001813;28;20069;-77
2023/04/02 01:32:42;;;;;;;0.28;0.28;;;16.70;68.90;;;;;;5004646;28;20057;-77
2023/04/02 01:35:08;;;;;;;0.30;0.30;;;16.60;68.90;;;;;;4987280;28;20039;-77
2023/04/02 01:37:51;;;;;;;0.68;0.28;;;16.70;68.90;;;;;;5006542;28;20058;-77
2023/04/02 01:40:38;;;;;;;0.40;0.30;;;16.60;68.80;;;;;;4988284;28;20026;-77
2023/04/02 01:43:27;;;;;;;0.30;0.30;;;16.70;69.80;;;;;;5005348;28;20092;-77
2023/04/02 01:45:54;;;;;;;0.30;0.30;;;16.70;68.90;;;;;;5012805;28;20034;-77
2023/04/02 01:48:23;;;;;;;0.30;0.30;;;16.60;68.80;;;;;;5007028;28;20040;-77
2023/04/02 01:50:50;;;;;;;0.20;0.20;;;16.60;68.90;;;;;;5007165;28;20099;-77
2023/04/02 01:53:16;;;;;;;0.20;0.20;;;16.70;69.00;;;;;;4992322;28;20589;-78
2023/04/02 01:55:43;;;;;;;0.30;0.20;;;16.60;68.80;;;;;;4991930;28;20044;-77
2023/04/02 01:58:10;;;;;;;0.65;0.45;;;16.60;68.90;;;;;;5006776;28;20161;-77
2023/04/02 02:00:36;;;;;;;0.13;0.13;;;16.60;68.90;;;;;;5010198;28;20065;-78
2023/04/02 02:03:01;;;;;;;0.30;0.20;;;16.60;68.90;;;;;;5017306;28;20520;-78
2023/04/02 02:05:27;;;;;;;0.20;0.20;;;16.60;68.80;;;;;;5002517;28;20064;-78
2023/04/02 02:07:54;;;;;;;0.40;0.25;;;16.70;68.90;;;;;;5008561;28;20044;-78
2023/04/02 02:10:34;;;;;;;0.30;0.30;;;16.70;68.90;;;;;;5008232;28;20129;-78
2023/04/02 02:12:59;;;;;;;0.40;0.30;;;16.70;69.00;;;;;;4991322;28;20048;-78
2023/04/02 02:15:25;;;;;;;0.90;0.40;;;16.70;69.00;;;;;;5010245;28;20152;-78
2023/04/02 02:17:59;;;;;;;0.63;0.20;;;16.60;68.90;;;;;;5008791;28;20420;-78
2023/04/02 02:20:26;;;;;;;0.20;0.20;;;16.60;68.90;;;;;;5009875;28;20057;-78
2023/04/02 02:22:51;;;;;;;0.40;0.30;;;16.60;68.90;;;;;;5007851;28;20488;-77
2023/04/02 02:25:23;;;;;;;0.47;0.35;;;16.60;68.90;;;;;;5008233;28;20038;-77
2023/04/02 02:28:18;;;;;;;0.20;0.20;;;16.60;68.80;;;;;;5006241;28;20038;-78
2023/04/02 02:30:52;;;;;;;0.25;0.20;;;16.60;68.80;;;;;;5007009;28;20042;-78
2023/04/02 02:33:30;;;;;;;0.60;0.22;;;16.60;68.90;;;;;;5007196;28;20030;-77
2023/04/02 02:36:00;;;;;;;0.77;0.40;;;16.60;68.90;;;;;;5007558;28;20123;-78
2023/04/02 02:38:55;;;;;;;0.40;0.40;;;16.60;68.90;;;;;;5008998;28;20033;-78
2023/04/02 02:41:29;;;;;;;0.30;0.30;;;16.60;68.90;;;;;;5005339;28;20271;-78
2023/04/02 02:44:10;;;;;;;0.17;0.17;;;16.60;68.90;;;;;;5010904;28;20492;-78
2023/04/02 02:46:42;;;;;;;0.25;0.10;;;16.60;68.90;;;;;;5002390;28;20116;-78
2023/04/02 02:49:09;;;;;;;0.35;0.20;;;16.60;68.90;;;;;;4988189;28;20096;-78
2023/04/02 02:51:51;;;;;;;0.45;0.20;;;16.60;68.90;;;;;;4988726;28;20038;-78
2023/04/02 02:54:18;;;;;;;0.38;0.30;;;16.60;68.90;;;;;;5002855;28;20062;-78
2023/04/02 02:56:46;;;;;;;0.50;0.30;;;16.60;69.00;;;;;;5010060;28;20038;-78
2023/04/02 02:59:12;;;;;;;0.32;0.30;;;16.60;68.90;;;;;;5008292;28;20041;-78
2023/04/02 03:01:38;;;;;;;0.43;0.30;;;16.60;69.00;;;;;;5005772;28;20403;-78
2023/04/02 03:04:03;;;;;;;0.38;0.30;;;16.60;69.00;;;;;;5006957;28;20581;-78
2023/04/02 03:06:29;;;;;;;0.20;0.17;;;16.60;68.90;;;;;;5007370;28;20034;-78
2023/04/02 03:09:18;;;;;;;0.45;0.32;;;16.60;69.00;;;;;;5008979;28;20479;-78
2023/04/02 03:11:44;;;;;;;0.80;0.40;;;16.60;68.90;;;;;;5005897;28;20042;-78
2023/04/02 03:14:20;;;;;;;0.60;0.20;;;16.60;69.00;;;;;;5008154;28;20095;-78
2023/04/02 03:16:47;;;;;;;0.85;0.17;;;16.60;69.00;;;;;;5004461;28;20480;-78
2023/04/02 03:19:34;;;;;;;0.25;0.20;;;16.60;69.00;;;;;;5005410;28;20062;-78
2023/04/02 03:22:20;;;;;;;0.30;0.20;;;16.60;69.00;;;;;;5015855;28;20045;-78
2023/04/02 03:25:03;;;;;;;0.22;0.20;;;16.60;69.00;;;;;;5005248;28;20077;-78
2023/04/02 03:27:34;;;;;;;0.30;0.20;;;16.60;69.00;;;;;;5008001;28;20050;-78
2023/04/02 03:30:28;;;;;;;0.30;0.30;;;16.60;69.00;;;;;;5005704;28;20125;-78
2023/04/02 03:32:56;;;;;;;0.20;0.20;;;16.60;69.00;;;;;;5008733;28;20077;-78
2023/04/02 03:35:45;;;;;;;0.52;0.30;;;16.60;69.00;;;;;;5007384;28;20949;-78
2023/04/02 03:38:35;;;;;;;0.30;0.30;;;16.60;69.00;;;;;;5006646;28;20068;-78
2023/04/02 03:41:08;;;;;;;0.57;0.40;;;16.60;69.00;;;;;;5002697;28;20038;-78
2023/04/02 03:43:42;;;;;;;0.40;0.30;;;16.60;69.10;;;;;;5003678;28;20045;-78
2023/04/02 03:46:32;;;;;;;0.47;0.30;;;16.60;69.00;;;;;;5005763;28;20049;-78
2023/04/02 03:49:17;;;;;;;0.30;0.20;;;16.60;69.00;;;;;;5005673;28;20550;-78
2023/04/02 03:51:58;;;;;;;0.30;0.20;;;16.60;68.90;;;;;;5012615;28;20053;-78
2023/04/02 03:54:24;;;;;;;0.40;0.25;;;16.60;69.00;;;;;;5007387;28;20042;-78
2023/04/02 03:56:49;;;;;;;0.43;0.20;;;16.60;69.00;;;;;;5007876;28;20034;-78
2023/04/02 03:59:21;;;;;;;0.32;0.30;;;16.60;69.00;;;;;;5005176;28;20557;-78
2023/04/02 04:02:25;;;;;;;0.15;0.13;;;16.60;69.00;;;;;;4988470;28;20050;-78
2023/04/02 04:04:51;;;;;;;0.20;0.10;;;16.60;68.90;;;;;;5006599;28;20050;-78
2023/04/02 04:07:37;;;;;;;0.68;0.20;;;16.60;69.00;;;;;;5006214;28;20052;-78
2023/04/02 04:10:03;;;;;;;0.40;0.20;;;16.60;68.90;;;;;;5004543;28;20179;-78
2023/04/02 04:12:42;;;;;;;0.30;0.20;;;16.60;69.00;;;;;;5005015;28;20455;-78
2023/04/02 04:15:33;;;;;;;0.35;0.20;;;16.50;69.00;;;;;;5005443;28;20050;-78
2023/04/02 04:18:04;;;;;;;0.65;0.30;;;16.60;69.00;;;;;;5003989;28;20411;-77
2023/04/02 04:20:55;;;;;;;0.10;0.10;;;16.50;69.00;;;;;;5006171;28;20512;-78
2023/04/02 04:23:28;;;;;;;0.20;0.20;;;16.50;68.90;;;;;;5018053;28;20045;-78
2023/04/02 04:26:00;;;;;;;0.20;0.20;;;16.60;69.00;;;;;;5007559;28;20133;-78
2023/04/02 04:28:42;;;;;;;0.20;0.20;;;16.50;69.00;;;;;;5004785;28;20054;-78
2023/04/02 04:31:19;;;;;;;0.28;0.28;;;16.50;68.90;;;;;;5002223;28;20046;-78
2023/04/02 04:33:49;;;;;;;0.20;0.20;;;16.50;69.00;;;;;;5002114;28;20519;-78
2023/04/02 04:36:20;;;;;;;0.22;0.20;;;16.50;69.00;;;;;;5005311;28;20447;-79
2023/04/02 04:38:48;;;;;;;0.30;0.30;;;16.50;68.90;;;;;;5004775;28;20566;-78
2023/04/02 04:41:15;;;;;;;0.40;0.40;;;16.50;68.90;;;;;;5003960;28;20072;-78
2023/04/02 04:43:47;;;;;;;0.32;0.32;;;16.50;68.90;;;;;;4990605;28;20515;-78
2023/04/02 04:46:18;;;;;;;0.30;0.30;;;16.50;68.90;;;;;;5020139;28;20038;-78
2023/04/02 04:49:11;;;;;;;0.60;0.40;;;16.50;69.00;;;;;;5004727;28;20096;-79
2023/04/02 04:51:41;;;;;;;0.30;0.20;;;16.50;69.00;;;;;;5003368;28;20049;-78
2023/04/02 04:54:13;;;;;;;0.30;0.20;;;16.50;69.00;;;;;;5007120;28;20046;-78
2023/04/02 04:56:39;;;;;;;0.30;0.30;;;16.50;69.00;;;;;;5006277;28;20045;-78
2023/04/02 04:59:19;;;;;;;0.57;0.30;;;16.50;68.90;;;;;;5004777;28;20045;-78
2023/04/02 05:02:08;;;;;;;0.32;0.28;;;16.50;68.90;;;;;;5014556;28;20248;-78
2023/04/02 05:04:38;;;;;;;0.38;0.28;;;16.50;69.00;;;;;;5005637;28;20136;-78
2023/04/02 05:07:08;;;;;;;0.40;0.20;;;16.50;68.90;;;;;;5018677;28;20576;-78
2023/04/02 05:09:49;;;;;;;0.30;0.20;;;16.50;68.90;;;;;;5004558;28;20046;-78
2023/04/02 05:12:24;;;;;;;0.10;0.10;;;16.50;69.00;;;;;;4999516;28;20458;-79
2023/04/02 05:15:05;;;;;;;0.30;0.30;;;16.50;68.90;;;;;;5006354;28;20467;-78
2023/04/02 05:17:43;;;;;;;0.15;0.15;;;16.50;68.90;;;;;;5003288;28;20096;-78
2023/04/02 05:20:25;;;;;;;0.20;0.20;;;16.50;68.90;;;;;;5005485;28;20128;-78
2023/04/02 05:23:36;;;;;;;0.30;0.20;;;16.50;68.90;;;;;;5005705;28;20050;-78
2023/04/02 05:26:25;;;;;;;0.38;0.20;;;16.50;69.00;;;;;;5008129;28;20088;-79
2023/04/02 05:28:57;;;;;;;0.40;0.30;;;16.50;69.00;;;;;;5010239;28;20098;-78
2023/04/02 05:31:25;;;;;;;0.20;0.20;;;16.50;68.90;;;;;;4992965;28;20469;-78
2023/04/02 05:33:51;;;;;;;0.20;0.20;;;16.50;68.90;;;;;;4991030;28;20045;-78
2023/04/02 05:36:28;;;;;;;0.40;0.30;;;16.50;68.90;;;;;;5007325;28;20092;-78
2023/04/02 05:38:55;;;;;;;0.30;0.20;;;16.50;68.90;;;;;;4998700;28;20411;-78
2023/04/02 05:41:26;;;;;;;0.20;0.20;;;16.50;68.90;;;;;;5004788;28;20042;-78
2023/04/02 05:44:05;;;;;;;0.20;0.20;;;16.50;68.90;;;;;;5008981;28;20057;-79
2023/04/02 05:46:35;;;;;;;0.30;0.20;;;16.50;68.90;;;;;;5007031;28;20078;-78
2023/04/02 05:49:01;;;;;;;0.40;0.30;;;16.50;68.90;;;;;;4988422;28;20042;-79
2023/04/02 05:51:30;;;;;;;0.22;0.22;;;16.50;68.90;;;;;;5024377;28;20100;-78
2023/04/02 05:54:00;;;;;;;0.40;0.30;;;16.50;69.00;;;;;;4988034;28;20055;-78
2023/04/02 05:56:32;;;;;;;0.85;0.30;;;16.50;68.90;;;;;;5009341;28;20128;-78
2023/04/02 05:59:06;;;;;;;0.40;0.30;;;16.50;68.80;;;;;;4993378;28;20230;-78
2023/04/02 06:01:49;;;;;;;0.30;0.30;;;16.50;68.80;;;;;;5008783;28;20414;-78
2023/04/02 06:04:28;;;;;;;0.43;0.30;;;16.50;68.80;;;;;;5009174;28;20057;-78
2023/04/02 06:06:58;;;;;;;0.30;0.30;;;16.50;68.80;;;;;;5006779;28;20515;-78
2023/04/02 06:09:30;;;;;;;0.38;0.28;;;16.50;68.80;;;;;;5009507;28;20826;-78
2023/04/02 06:12:07;;;;;;;0.15;0.10;;;16.50;69.60;;;;;;4988641;28;20072;-78
2023/04/02 06:14:32;;;;;;;0.20;0.20;;;16.50;68.70;;;;;;5008060;28;20045;-78
2023/04/02 06:16:58;;;;;;;0.55;0.38;;;16.50;68.70;;;;;;5006109;28;20430;-78
2023/04/02 06:19:30;;;;;;;0.88;0.15;;;16.50;68.70;;;;;;5007300;28;20083;-78
2023/04/02 06:22:06;;;;;;;0.40;0.32;;;16.50;68.80;;;;;;4991335;28;20046;-78
2023/04/02 06:24:32;;;;;;;0.25;0.25;;;16.50;68.70;;;;;;5007984;28;20045;-79
2023/04/02 06:27:01;;;;;;;0.25;0.20;;;16.50;68.70;;;;;;5007195;28;20050;-78
2023/04/02 06:29:38;;;;;;;0.20;0.20;;;16.50;68.60;;;;;;5007652;28;20160;-78
2023/04/02 06:32:07;;;;;;;0.60;0.60;;;16.50;68.60;;;;;;5004902;28;20057;-78
2023/04/02 06:34:33;;;;;;;0.57;0.40;;;16.50;68.60;;;;;;5007136;28;20050;-78
2023/04/02 06:37:02;;;;;;;0.25;0.20;;;16.50;68.50;;;;;;5007032;28;20111;-78
2023/04/02 06:39:27;;;;;;;0.30;0.30;;;16.50;68.60;;;;;;5005159;28;20416;-78
2023/04/02 06:42:01;;;;;;;0.20;0.20;;;16.50;68.40;;;;;;5008671;28;20515;-78
2023/04/02 06:44:31;;;;;;;0.28;0.20;;;16.50;68.50;;;;;;5009509;28;20041;-78
2023/04/02 06:46:59;;;;;;;0.30;0.10;;;16.50;68.40;;;;;;4988493;28;20042;-79
2023/04/02 06:49:43;;;;;;;0.30;0.30;;;16.50;68.50;;;;;;5008879;28;20132;-78
2023/04/02 06:52:22;;;;;;;0.28;0.28;;;16.50;68.50;;;;;;5007874;28;20133;-78
2023/04/02 06:54:47;;;;;;;0.20;0.20;;;16.50;68.60;;;;;;5006084;28;20050;-78
2023/04/02 06:57:13;;;;;;;0.30;0.20;;;16.50;68.60;;;;;;5008531;28;20034;-78
2023/04/02 06:59:39;;;;;;;0.40;0.22;;;16.50;68.40;;;;;;5005671;28;20038;-78
2023/04/02 07:02:19;;;;;;;0.20;0.20;;;16.50;68.50;;;;;;5007613;28;20046;-78
2023/04/02 07:04:44;;;;;;;0.30;0.25;;;16.50;68.60;;;;;;5004641;28;20478;-78
2023/04/02 07:07:10;;;;;;;1.35;0.20;;;16.50;68.40;;;;;;5022349;28;20610;-78
2023/04/02 07:09:36;;;;;;;0.40;0.30;;;16.50;68.50;;;;;;5010110;28;20054;-78
2023/04/02 07:12:01;;;;;;;0.30;0.20;;;16.50;68.50;;;;;;5007316;28;20045;-78
2023/04/02 07:14:27;;;;;;;0.22;0.20;;;16.50;68.40;;;;;;5005890;28;20050;-78
2023/04/02 07:16:53;;;;;;;1.27;0.30;;;16.50;68.30;;;;;;5005188;28;20046;-78
2023/04/02 07:19:20;;;;;;;0.30;0.30;;;16.50;68.30;;;;;;5007031;28;20042;-78
2023/04/02 07:21:46;;;;;;;0.60;0.40;;;16.50;68.30;;;;;;4989527;28;20458;-78
2023/04/02 07:24:12;;;;;;;0.20;0.20;;;16.50;68.30;;;;;;5021199;28;20112;-78
2023/04/02 07:26:37;;;;;;;0.32;0.30;;;16.50;68.40;;;;;;5006813;28;20419;-78
2023/04/02 07:29:06;;;;;;;0.40;0.30;;;16.50;68.40;;;;;;5019516;28;20095;-78
2023/04/02 07:31:31;;;;;;;0.30;0.30;;;16.50;68.40;;;;;;4989374;28;20129;-78
2023/04/02 07:33:58;;;;;;;0.40;0.30;;;16.50;68.40;;;;;;5005642;28;20117;-78
2023/04/02 07:36:24;;;;;;;0.25;0.20;;;16.50;68.30;;;;;;5009371;28;20041;-78
2023/04/02 07:38:50;;;;;;;0.40;0.40;;;16.50;68.40;;;;;;5003021;28;20045;-78
2023/04/02 07:41:16;;;;;;;0.22;0.22;;;16.50;68.30;;;;;;5005495;28;20042;-78
2023/04/02 07:43:42;;;;;;;0.30;0.30;;;16.50;68.20;;;;;;5009413;28;20450;-78
2023/04/02 07:46:09;;;;;;;0.30;0.30;;;16.60;68.30;;;;;;5004673;28;20053;-78
2023/04/02 07:48:35;;;;;;;0.20;0.20;;;16.60;68.30;;;;;;5004816;28;20042;-78
2023/04/02 07:51:02;;;;;;;0.20;0.20;;;16.60;68.40;;;;;;5008642;28;20046;-78
2023/04/02 07:53:36;;;;;;;0.20;0.20;;;16.60;68.20;;;;;;5009765;28;20041;-78
2023/04/02 07:56:02;;;;;;;0.32;0.20;;;16.60;68.30;;;;;;4990665;28;20074;-78
2023/04/02 07:58:29;;;;;;;0.20;0.10;;;16.60;68.30;;;;;;5006984;28;20179;-78
2023/04/02 08:00:54;;;;;;;0.10;0.10;;;16.60;68.30;;;;;;5001863;28;20053;-78
2023/04/02 08:03:20;;;;;;;0.20;0.20;;;16.60;68.30;;;;;;5006955;28;20060;-79
2023/04/02 08:05:53;;;;;;;0.15;0.15;;;16.60;68.00;;;;;;5005007;28;20042;-78
2023/04/02 08:08:20;;;;;;;0.30;0.20;;;16.60;68.00;;;;;;5007865;28;20045;-78
2023/04/02 08:10:45;;;;;;;0.20;0.20;;;16.60;68.10;;;;;;5005039;28;20495;-78
2023/04/02 08:13:11;;;;;;;0.20;0.20;;;16.60;68.20;;;;;;5004818;28;20046;-79
2023/04/02 08:15:37;;;;;;;0.20;0.20;;;16.60;68.10;;;;;;5006589;28;20131;-78
2023/04/02 08:18:03;;;;;;;0.40;0.40;;;16.60;68.30;;;;;;5004360;28;20069;-78
2023/04/02 08:20:28;;;;;;;0.30;0.30;;;16.60;68.30;;;;;;5007648;28;20045;-78
2023/04/02 08:22:55;;;;;;;0.40;0.30;;;16.60;68.30;;;;;;5006021;28;20029;-78
2023/04/02 08:25:20;;;;;;;0.30;0.30;;;16.60;68.30;;;;;;5005857;28;20054;-78
2023/04/02 08:27:47;;;;;;;0.35;0.25;;;16.60;68.20;;;;;;5005121;28;20512;-79
2023/04/02 08:30:12;;;;;;;0.20;0.20;;;16.60;68.20;;;;;;5003316;28;20042;-78
2023/04/02 08:32:39;;;;;;;0.13;0.13;;;16.60;68.20;;;;;;4991595;28;20053;-78
2023/04/02 08:35:06;;;;;;;0.22;0.22;;;16.60;68.20;;;;;;4984684;28;21097;-78
2023/04/02 08:37:32;;;;;;;0.30;0.10;;;16.60;68.30;;;;;;5023708;28;20044;-79
2023/04/02 08:39:58;;;;;;;0.10;0.10;;;16.60;68.20;;;;;;5021166;28;20042;-78
2023/04/02 08:42:33;;;;;;;0.20;0.20;;;16.60;68.20;;;;;;5003378;28;20090;-78
2023/04/02 08:45:05;;;;;;;0.30;0.30;;;16.60;68.20;;;;;;5005421;28;20454;-78
2023/04/02 08:47:35;;;;;;;0.13;0.10;;;16.50;68.20;;;;;;4990502;28;20041;-78
2023/04/02 08:50:03;;;;;;;0.30;0.20;;;16.60;68.30;;;;;;5004364;28;20475;-78
2023/04/02 08:52:35;;;;;;;0.43;0.30;;;16.60;68.20;;;;;;4988381;28;20499;-78
2023/04/02 08:55:01;;;;;;;0.10;0.10;;;16.60;68.20;;;;;;5015094;28;20050;-78
2023/04/02 08:57:51;;;;;;;0.05;0.05;;;16.60;68.00;;;;;;5020454;28;20598;-78
2023/04/02 09:00:22;;;;;;;0.20;0.20;;;16.70;68.00;;;;;;4994514;28;20251;-78
2023/04/02 09:03:05;;;;;;;0.17;0.15;;;16.60;67.90;;;;;;5010577;28;20040;-78
2023/04/02 09:05:32;;;;;;;0.20;0.20;;;16.60;68.00;;;;;;5011831;28;20053;-78
2023/04/02 09:08:00;;;;;;;0.20;0.20;;;16.60;67.90;;;;;;5008510;28;20144;-78
2023/04/02 09:10:34;;;;;;;0.20;0.20;;;16.60;67.90;;;;;;5022118;28;20045;-78
2023/04/02 09:13:00;;;;;;;;;;;16.60;67.90;;;;;;4971685;28;20145;-78
2023/04/02 09:15:30;;;;;;;0.40;0.13;;;16.60;67.90;;;;;;5009444;28;20008;-78
2023/04/02 09:18:19;;;;;;;0.20;0.20;;;16.70;68.00;;;;;;5006755;28;20050;-78
2023/04/02 09:20:46;;;;;;;0.20;0.20;;;16.70;67.90;;;;;;5005866;28;20113;-78
2023/04/02 09:23:17;;;;;;;0.10;0.10;;;16.70;67.70;;;;;;5011634;28;20503;-78
2023/04/02 09:25:47;;;;;;;0.20;0.20;;;16.80;67.50;;;;;;4992222;28;20534;-78
2023/04/02 09:28:13;;;;;;;0.30;0.30;;;16.80;67.40;;;;;;5007968;28;20045;-79
2023/04/02 09:30:48;;;;;;;0.20;0.20;;;16.90;67.30;;;;;;5006745;28;20042;-79
2023/04/02 09:33:14;;;;;;;0.20;0.20;;;16.90;67.20;;;;;;5002536;28;20048;-79
2023/04/02 09:35:48;;;;;;;0.30;0.13;;;16.90;67.20;;;;;;5008510;28;20415;-79
2023/04/02 09:38:21;;;;;;;0.20;0.10;;;16.80;67.30;;;;;;5003829;28;20069;-79
2023/04/02 09:41:03;;;;;;;0.45;0.20;;;16.80;67.20;;;;;;5007208;28;20038;-78
2023/04/02 09:43:34;;;;;;;0.52;0.32;;;16.90;67.30;;;;;;5006960;28;20017;-80
2023/04/02 09:46:11;;;;;;;0.20;0.20;;;16.90;67.20;;;;;;5005025;28;20049;-79
2023/04/02 09:48:51;;;;;;;1.25;0.20;;;16.80;67.30;;;;;;5021630;28;20596;-80
2023/04/02 09:51:27;;;;;;;0.20;0.20;;;16.80;67.50;;;;;;4990554;28;20808;-79
2023/04/02 09:54:01;;;;;;;0.40;0.30;;;16.70;67.60;;;;;;5009630;28;20046;-78
2023/04/02 09:56:27;;;;;;;0.52;0.30;;;16.80;67.50;;;;;;5007026;28;20093;-79
2023/04/02 09:59:17;;;;;;;0.20;0.10;;;16.70;67.50;;;;;;5007849;28;20054;-79
2023/04/02 10:01:43;;;;;;;0.20;0.20;;;16.70;67.60;;;;;;5008160;28;20415;-79
2023/04/02 10:04:44;;;;;;;0.30;0.30;;;16.70;67.60;;;;;;5007515;28;20143;-78
2023/04/02 10:07:31;;;;;;;0.20;0.20;;;16.80;67.60;;;;;;5002029;28;20591;-79
2023/04/02 10:10:01;;;;;;;0.20;0.20;;;16.70;67.50;;;;;;5006816;28;20061;-78
2023/04/02 10:12:27;;;;;;;0.43;0.10;;;16.70;67.80;;;;;;4971813;28;20064;-78
2023/04/02 10:14:53;;;;;;;0.40;0.40;;;16.70;67.60;;;;;;4990056;28;20140;-79
2023/04/02 10:17:27;;;;;;;0.22;0.20;;;16.70;67.50;;;;;;5008642;28;20205;-79
2023/04/02 10:19:57;;;;;;;0.17;0.17;;;16.60;67.60;;;;;;5006361;28;20630;-79
2023/04/02 10:22:23;;;;;;;0.10;0.10;;;16.60;67.60;;;;;;4992421;28;20048;-79
2023/04/02 10:24:49;;;;;;;0.20;0.20;;;16.70;67.60;;;;;;5003949;28;20050;-79
2023/04/02 10:27:36;;;;;;;0.20;0.20;;;16.60;67.70;;;;;;5006205;28;20500;-79
2023/04/02 10:30:38;;;;;;;0.20;0.20;;;16.60;67.70;;;;;;5010853;28;20052;-79
2023/04/02 10:33:21;;;;;;;0.10;0.10;;;16.60;67.60;;;;;;5005588;28;20104;-79
2023/04/02 10:36:04;;;;;;;0.47;0.20;;;16.70;67.70;;;;;;4995778;28;20890;-79
2023/04/02 10:39:01;;;;;;;0.20;0.20;;;16.70;67.70;;;;;;5007249;28;20050;-79
2023/04/02 10:41:31;;;;;;;0.55;0.15;;;16.70;67.60;;;;;;5018498;28;20046;-79
2023/04/02 10:44:03;;;;;;;0.10;0.10;;;16.60;67.60;;;;;;5003579;28;20030;-79
2023/04/02 10:46:31;;;;;;;0.25;0.20;;;16.60;67.80;;;;;;5022664;28;20104;-78
2023/04/02 10:49:09;;;;;;;0.40;0.35;;;16.60;67.70;;;;;;5005920;28;20088;-79
2023/04/02 10:51:42;;;;;;;0.15;0.15;;;16.70;67.70;;;;;;5005319;28;20050;-79
2023/04/02 10:54:27;;;;;;;0.30;0.30;;;16.70;67.60;;;;;;5003766;28;20061;-79
2023/04/02 10:57:05;;;;;;;0.20;0.20;;;16.70;67.80;;;;;;5007611;28;20034;-80
2023/04/02 10:59:33;;;;;;;0.10;0.10;;;16.70;67.60;;;;;;5006407;28;20522;-79
2023/04/02 11:02:00;;;;;;;0.28;0.28;;;16.80;67.60;;;;;;5005541;28;20263;-79
2023/04/02 11:04:34;;;;;;;0.45;0.30;;;16.70;67.40;;;;;;5007259;28;20121;-79
2023/04/02 11:07:01;;;;;;;0.10;0.10;;;16.70;67.50;;;;;;5006832;28;20125;-79
2023/04/02 11:09:29;;;;;;;0.20;0.20;;;16.80;67.30;;;;;;5009267;28;20502;-80
2023/04/02 11:11:55;;;;;;;0.25;0.22;;;16.80;67.20;;;;;;5004705;28;20338;-79
2023/04/02 11:14:22;;;;;;;0.22;0.22;;;16.80;67.30;;;;;;5006458;28;20050;-79
2023/04/02 11:16:48;;;;;;;0.30;0.30;;;16.80;67.10;;;;;;5007660;28;20050;-80
2023/04/02 11:19:14;;;;;;;0.40;0.20;;;16.90;67.20;;;;;;5003881;28;20128;-79
2023/04/02 11:21:43;;;;;;;0.20;0.20;;;16.90;67.10;;;;;;5007648;28;20088;-79
2023/04/02 11:24:35;;;;;;;0.25;0.25;;;16.80;67.10;;;;;;5020541;28;20060;-79
2023/04/02 11:27:04;;;;;;;0.43;0.30;;;16.80;67.20;;;;;;5004545;28;20398;-79
2023/04/02 11:29:30;;;;;;;0.30;0.20;;;16.80;67.30;;;;;;5006501;28;20470;-79
2023/04/02 11:32:18;;;;;;;0.20;0.20;;;16.70;67.40;;;;;;5005586;28;20103;-79
2023/04/02 11:34:47;;;;;;;0.20;0.20;;;16.90;67.00;;;;;;5005875;28;20092;-79
2023/04/02 11:37:39;;;;;;;0.57;0.20;;;16.90;66.90;;;;;;5003982;28;20049;-79
2023/04/02 11:40:10;;;;;;;0.25;0.25;;;16.90;66.60;;;;;;5004564;28;20061;-79
2023/04/02 11:42:39;;;;;;;0.20;0.20;;;16.90;66.60;;;;;;5006566;28;20041;-79
2023/04/02 11:45:23;;;;;;;0.20;0.20;;;16.90;66.80;;;;;;5005204;28;20042;-79
2023/04/02 11:48:02;;;;;;;0.30;0.30;;;17.00;66.90;;;;;;5006405;28;20403;-79
2023/04/02 11:50:31;;;;;;;0.40;0.20;;;16.90;67.00;;;;;;5009983;28;20415;-80
2023/04/02 11:53:01;;;;;;;0.20;0.20;;;16.80;67.30;;;;;;5007114;28;20092;-79
2023/04/02 11:55:30;;;;;;;0.10;0.10;;;16.70;67.40;;;;;;5005799;28;20049;-79
2023/04/02 11:58:24;;;;;;;0.28;0.20;;;16.70;68.30;;;;;;5004631;28;20148;-79
2023/04/02 12:01:01;;;;;;;0.43;0.10;;;16.70;67.50;;;;;;5002861;28;20424;-79
2023/04/02 12:03:41;;;;;;;0.10;0.10;;;16.70;67.50;;;;;;5006276;28;20048;-79
2023/04/02 12:06:17;;;;;;;0.15;0.15;;;16.80;67.30;;;;;;5007494;28;20073;-79
2023/04/02 12:09:09;;;;;;;0.10;0.10;;;16.70;67.50;;;;;;5005959;28;20030;-79
2023/04/02 12:11:36;;;;;;;0.20;0.20;;;16.70;67.40;;;;;;4999942;28;20126;-80
2023/04/02 12:14:26;;;;;;;0.20;0.20;;;16.80;67.40;;;;;;4975285;28;20038;-79
2023/04/02 12:16:52;;;;;;;0.10;0.10;;;16.80;67.30;;;;;;5003372;28;20068;-79
2023/04/02 12:19:17;;;;;;;0.38;0.20;;;16.80;67.20;;;;;;4998465;28;20060;-79
2023/04/02 12:21:46;;;;;;;0.10;0.10;;;16.70;67.20;;;;;;4988817;28;20042;-79
2023/04/02 12:24:16;;;;;;;0.10;0.10;;;16.80;67.30;;;;;;5002425;28;20068;-79
2023/04/02 12:26:45;;;;;;;0.20;0.20;;;16.70;67.30;;;;;;4957691;28;20744;-79
2023/04/02 12:29:15;;;;;;;0.20;0.20;;;16.70;67.40;;;;;;4987688;28;20038;-79
2023/04/02 12:31:44;;;;;;;0.10;0.10;;;16.80;67.30;;;;;;4956270;28;20100;-79
2023/04/02 12:34:20;;;;;;;0.20;0.20;;;16.80;67.10;;;;;;4970340;28;20057;-79
2023/04/02 12:37:01;;;;;;;0.63;0.10;;;16.80;67.10;;;;;;4986581;28;20054;-79
2023/04/02 12:39:27;;;;;;;0.10;0.10;;;16.80;67.00;;;;;;5001402;28;20171;-79
2023/04/02 12:41:52;;;;;;;0.28;0.28;;;16.80;67.20;;;;;;4970580;28;20511;-79
2023/04/02 12:44:22;;;;;;;0.10;0.10;;;16.80;67.20;;;;;;4988580;28;20053;-79
2023/04/02 12:46:48;;;;;;;0.20;0.20;;;16.80;67.30;;;;;;4983627;28;20041;-79
2023/04/02 12:49:38;;;;;;;0.20;0.20;;;16.70;67.40;;;;;;4995496;28;20416;-79
2023/04/02 12:52:15;;;;;;;0.10;0.10;;;16.80;67.50;;;;;;5010391;28;20062;-79
2023/04/02 12:54:45;;;;;;;0.20;0.20;;;16.80;67.20;;;;;;5001944;28;20057;-79
2023/04/02 12:57:20;;;;;;;0.10;0.10;;;16.90;66.90;;;;;;5008255;28;20086;-80
2023/04/02 12:59:46;;;;;;;0.10;0.10;;;16.90;66.50;;;;;;5006507;28;20132;-79
2023/04/02 13:02:19;;;;;;;0.30;0.30;;;17.00;66.30;;;;;;5004323;28;20141;-79
2023/04/02 13:04:53;;;;;;;0.30;0.30;;;17.00;66.40;;;;;;5006642;28;20124;-79
2023/04/02 13:07:24;;;;;;;0.40;0.40;;;17.00;66.40;;;;;;5002304;28;20046;-79
2023/04/02 13:09:54;;;;;;;0.10;0.10;;;16.90;66.40;;;;;;4988638;28;20034;-79
2023/04/02 13:12:31;;;;;;;0.10;0.10;;;16.90;66.50;;;;;;4984063;28;20053;-79
2023/04/02 13:14:56;;;;;;;0.10;0.10;;;16.90;66.70;;;;;;5003346;28;20038;-79
2023/04/02 13:17:46;;;;;;;0.10;0.10;;;16.90;67.10;;;;;;5001652;28;20041;-79